createdAt,value
2022-08-01T00:01:43.294Z,80.50
2022-08-01T00:04:11.275Z,78.92
2022-08-01T00:06:39.111Z,77.34
2022-08-01T00:09:30.752Z,78.36
2022-08-01T00:11:59.913Z,78.86
2022-08-01T00:14:31.960Z,79.67
2022-08-01T00:17:07.449Z,80.73
2022-08-01T00:19:36.204Z,80.47
2022-08-01T00:22:04.665Z,82.03
2022-08-01T00:24:32.744Z,82.84
2022-08-01T00:27:00.522Z,83.36
2022-08-01T00:30:11.290Z,81.30
2022-08-01T00:32:17.646Z,82.40
2022-08-01T00:34:45.556Z,81.73
2022-08-01T00:37:16.002Z,80.98
2022-08-01T00:39:44.166Z,81.41
2022-08-01T00:42:13.380Z,80.48
2022-08-01T00:44:41.439Z,81.29
2022-08-01T00:47:09.728Z,81.13
2022-08-01T00:49:46.919Z,81.18
2022-08-01T00:52:14.735Z,81.49
2022-08-01T00:54:42.582Z,81.33
2022-08-01T00:57:10.857Z,82.65
2022-08-01T00:59:39.843Z,81.14
2022-08-01T01:02:15.471Z,80.90
2022-08-01T01:04:44.213Z,81.21
2022-08-01T01:07:21.276Z,82.80
2022-08-01T01:09:58.759Z,81.13
2022-08-01T01:12:38.288Z,80.29
2022-08-01T01:15:10.872Z,81.54
2022-08-01T01:17:50.120Z,80.74
2022-08-01T01:20:22.876Z,79.01
2022-08-01T01:23:08.076Z,79.46
2022-08-01T01:30:00.153Z,80.95
2022-08-01T01:32:35.059Z,81.80
2022-08-01T01:35:06.849Z,81.46
2022-08-01T01:37:36.469Z,82.62
2022-08-01T01:40:05.834Z,83.20
2022-08-01T01:42:35.280Z,83.51
2022-08-01T01:45:07.677Z,83.33
2022-08-01T01:47:36.649Z,82.10
2022-08-01T01:50:07.633Z,83.69
2022-08-01T01:52:36.799Z,85.74
2022-08-01T01:55:09.338Z,84.39
2022-08-01T01:57:39.843Z,85.05
2022-08-01T02:00:10.328Z,85.84
2022-08-01T02:02:39.490Z,84.43
2022-08-01T02:05:09.814Z,85.13
2022-08-01T02:07:39.077Z,85.42
2022-08-01T02:10:08.616Z,84.94
2022-08-01T02:12:39.818Z,85.81
2022-08-01T02:15:11.959Z,84.70
2022-08-01T02:17:43.950Z,85.77
2022-08-01T02:20:13.465Z,85.18
2022-08-01T02:22:44.555Z,84.63
2022-08-01T02:25:18.742Z,84.77
2022-08-01T02:27:52.940Z,85.04
2022-08-01T02:30:24.659Z,86.67
2022-08-01T02:32:56.055Z,84.16
2022-08-01T02:35:28.518Z,85.55
2022-08-01T02:37:59.732Z,84.35
2022-08-01T02:40:30.228Z,83.16
2022-08-01T02:43:00.946Z,83.29
2022-08-01T02:45:32.107Z,82.35
2022-08-01T02:48:03.318Z,83.47
2022-08-01T02:50:32.958Z,83.42
2022-08-01T02:53:02.831Z,84.10
2022-08-01T02:55:32.545Z,83.77
2022-08-01T02:58:02.135Z,82.73
2022-08-01T03:00:33.285Z,82.60
2022-08-01T03:03:03.669Z,82.26
2022-08-01T03:05:33.618Z,81.99
2022-08-01T03:08:03.805Z,81.66
2022-08-01T03:10:33.872Z,81.14
2022-08-01T03:13:03.107Z,82.73
2022-08-01T03:15:38.554Z,82.72
2022-08-01T03:18:08.598Z,84.02
2022-08-01T03:20:36.852Z,83.24
2022-08-01T03:23:07.284Z,83.59
2022-08-01T03:25:41.382Z,82.50
2022-08-01T03:28:10.886Z,82.60
2022-08-01T03:30:41.661Z,82.84
2022-08-01T03:33:09.655Z,83.25
2022-08-01T03:35:48.880Z,82.43
2022-08-01T03:38:21.086Z,82.80
2022-08-01T03:40:54.630Z,81.71
2022-08-01T03:43:29.141Z,82.73
2022-08-01T03:46:04.272Z,83.07
2022-08-01T03:48:35.109Z,83.33
2022-08-01T03:51:04.332Z,83.43
2022-08-01T03:53:34.073Z,82.63
2022-08-01T03:56:03.731Z,83.37
2022-08-01T03:58:32.597Z,82.98
2022-08-01T04:01:02.170Z,83.84
2022-08-01T04:03:30.541Z,83.09
2022-08-01T04:05:58.570Z,83.13
2022-08-01T04:08:36.581Z,82.95
2022-08-01T04:11:04.574Z,82.42
2022-08-01T04:13:36.676Z,82.87
2022-08-01T04:16:06.930Z,83.61
2022-08-01T04:18:35.188Z,83.95
2022-08-01T04:21:02.857Z,83.95
2022-08-01T04:23:33.490Z,83.19
2022-08-01T04:26:05.058Z,82.49
2022-08-01T04:28:36.086Z,82.14
2022-08-01T04:31:11.299Z,82.41
2022-08-01T04:33:40.588Z,84.68
2022-08-01T04:36:11.802Z,85.21
2022-08-01T04:38:41.403Z,85.26
2022-08-01T04:41:11.929Z,84.15
2022-08-01T04:43:40.183Z,84.37
2022-08-01T04:46:10.373Z,84.12
2022-08-01T04:48:40.796Z,82.40
2022-08-01T04:51:16.124Z,83.15
2022-08-01T04:53:44.500Z,83.85
2022-08-01T04:56:14.043Z,83.84
2022-08-01T04:58:42.260Z,83.67
2022-08-01T05:01:12.636Z,84.07
2022-08-01T05:03:40.518Z,83.57
2022-08-01T05:06:08.645Z,82.68
2022-08-01T05:08:37.105Z,82.46
2022-08-01T05:11:04.966Z,84.05
2022-08-01T05:13:32.688Z,84.17
2022-08-01T05:16:00.423Z,82.56
2022-08-01T05:18:29.503Z,84.34
2022-08-01T05:20:58.523Z,83.00
2022-08-01T05:23:41.881Z,83.25
2022-08-01T05:26:11.457Z,83.23
2022-08-01T05:28:42.584Z,82.98
2022-08-01T05:31:10.286Z,81.81
2022-08-01T05:33:39.292Z,80.36
2022-08-01T05:36:07.307Z,80.89
2022-08-01T05:38:35.060Z,81.43
2022-08-01T05:41:02.794Z,79.59
2022-08-01T05:43:30.456Z,80.00
2022-08-01T05:45:59.275Z,79.54
2022-08-01T05:48:28.053Z,78.69
2022-08-01T05:50:58.920Z,78.01
2022-08-01T05:53:26.937Z,78.22
2022-08-01T05:55:54.609Z,78.77
2022-08-01T05:58:22.323Z,79.09
2022-08-01T06:00:50.034Z,77.03
2022-08-01T06:03:17.695Z,77.61
2022-08-01T06:05:45.413Z,76.10
2022-08-01T06:08:14.469Z,74.99
2022-08-01T06:10:42.264Z,76.26
2022-08-01T06:13:09.935Z,75.75
2022-08-01T06:15:37.587Z,75.73
2022-08-01T06:18:07.421Z,75.41
2022-08-01T06:20:35.091Z,75.87
2022-08-01T06:23:05.843Z,74.93
2022-08-01T06:25:54.974Z,74.54
2022-08-01T06:28:22.709Z,70.31
2022-08-01T06:30:50.372Z,70.60
2022-08-01T06:33:18.096Z,70.84
2022-08-01T06:35:45.729Z,70.73
2022-08-01T06:38:13.375Z,70.89
2022-08-01T06:40:41.173Z,69.90
2022-08-01T06:43:12.253Z,69.44
2022-08-01T06:45:40.321Z,69.52
2022-08-01T06:48:08.223Z,70.60
2022-08-01T06:50:37.688Z,69.76
2022-08-01T06:53:05.479Z,69.91
2022-08-01T06:55:33.263Z,69.04
2022-08-01T06:58:00.923Z,69.76
2022-08-01T07:00:30.181Z,70.45
2022-08-01T07:02:59.504Z,69.76
2022-08-01T07:05:27.540Z,68.72
2022-08-01T07:07:55.643Z,67.10
2022-08-01T07:10:24.284Z,67.82
2022-08-01T07:12:52.011Z,68.10
2022-08-01T07:15:22.957Z,69.20
2022-08-01T07:17:51.971Z,68.01
2022-08-01T07:20:21.025Z,69.88
2022-08-01T07:22:49.547Z,67.10
2022-08-01T07:25:18.611Z,67.44
2022-08-01T07:27:46.553Z,67.01
2022-08-01T07:30:15.019Z,66.36
2022-08-01T07:32:43.218Z,66.15
2022-08-01T07:35:12.482Z,66.68
2022-08-01T07:37:47.649Z,67.38
2022-08-01T07:40:17.534Z,66.55
2022-08-01T07:42:45.943Z,66.48
2022-08-01T07:45:14.248Z,65.54
2022-08-01T07:47:41.927Z,65.67
2022-08-01T07:50:10.152Z,66.17
2022-08-01T07:52:39.197Z,64.93
2022-08-01T07:55:08.357Z,65.49
2022-08-01T07:57:36.094Z,65.05
2022-08-01T08:00:05.728Z,64.71
2022-08-01T08:02:33.426Z,67.16
2022-08-01T08:05:01.242Z,64.26
2022-08-01T08:07:28.983Z,64.51
2022-08-01T08:09:58.100Z,62.75
2022-08-01T08:12:28.705Z,63.02
2022-08-01T08:14:59.268Z,62.24
2022-08-01T08:17:27.614Z,62.52
2022-08-01T08:19:55.453Z,62.18
2022-08-01T08:22:23.098Z,59.81
2022-08-01T08:24:50.823Z,57.36
2022-08-01T08:27:19.911Z,57.25
2022-08-01T08:29:47.780Z,57.97
2022-08-01T08:32:15.609Z,58.69
2022-08-01T08:34:43.671Z,57.04
2022-08-01T08:37:11.491Z,58.98
2022-08-01T08:39:41.562Z,61.19
2022-08-01T08:42:11.372Z,61.11
2022-08-01T08:44:43.726Z,59.46
2022-08-01T08:47:19.004Z,60.54
2022-08-01T08:49:49.377Z,62.47
2022-08-01T08:52:19.345Z,61.76
2022-08-01T08:54:48.208Z,62.85
2022-08-01T08:57:16.644Z,62.60
2022-08-01T08:59:46.767Z,61.17
2022-08-01T09:02:14.813Z,61.89
2022-08-01T09:04:43.114Z,64.45
2022-08-01T09:07:12.662Z,62.07
2022-08-01T09:09:41.843Z,61.11
2022-08-01T09:12:10.791Z,61.16
2022-08-01T09:14:48.434Z,61.71
2022-08-01T09:17:17.431Z,60.18
2022-08-01T09:19:48.494Z,60.95
2022-08-01T09:22:19.548Z,58.75
2022-08-01T09:25:00.807Z,59.35
2022-08-01T09:27:28.936Z,62.37
2022-08-01T09:30:09.999Z,61.64
2022-08-01T09:32:54.227Z,60.93
2022-08-01T09:35:31.252Z,60.04
2022-08-01T09:38:15.432Z,61.80
2022-08-01T09:40:52.047Z,59.31
2022-08-01T09:43:20.861Z,58.51
2022-08-01T09:45:52.987Z,60.27
2022-08-01T09:48:22.792Z,59.54
2022-08-01T09:51:04.537Z,57.59
2022-08-01T09:53:52.671Z,59.07
2022-08-01T09:56:22.717Z,57.02
2022-08-01T09:58:58.519Z,58.12
2022-08-01T10:01:36.682Z,57.75
2022-08-01T10:04:09.909Z,57.83
2022-08-01T10:06:38.746Z,56.82
2022-08-01T10:09:06.796Z,56.29
2022-08-01T10:11:37.650Z,56.30
2022-08-01T10:14:08.045Z,57.77
2022-08-01T10:16:38.357Z,57.18
2022-08-01T10:19:14.845Z,56.36
2022-08-01T10:21:56.992Z,55.32
2022-08-01T10:24:33.333Z,57.47
2022-08-01T10:27:08.299Z,57.22
2022-08-01T10:29:46.148Z,55.33
2022-08-01T10:32:29.211Z,54.99
2022-08-01T10:34:57.658Z,52.63
2022-08-01T10:37:26.984Z,51.14
2022-08-01T10:40:14.224Z,51.95
2022-08-01T10:42:45.639Z,50.62
2022-08-01T10:45:17.075Z,50.79
2022-08-01T10:47:55.390Z,51.79
2022-08-01T10:50:30.487Z,49.97
2022-08-01T10:53:16.081Z,49.42
2022-08-01T10:55:55.207Z,48.78
2022-08-01T10:58:25.063Z,51.24
2022-08-01T11:01:21.405Z,48.85
2022-08-01T11:04:04.284Z,46.15
2022-08-01T11:06:42.804Z,47.44
2022-08-01T11:09:36.530Z,51.53
2022-08-01T11:12:13.287Z,49.11
2022-08-01T11:15:30.312Z,46.82
2022-08-01T11:18:01.393Z,45.50
2022-08-01T11:20:33.799Z,46.18
2022-08-01T11:23:29.749Z,46.89
2022-08-01T11:26:28.733Z,45.81
2022-08-01T11:29:21.948Z,48.01
2022-08-01T11:31:51.029Z,47.26
2022-08-01T11:34:18.976Z,45.42
2022-08-01T11:36:58.867Z,45.82
2022-08-01T11:39:27.291Z,44.94
2022-08-01T11:41:55.799Z,44.45
2022-08-01T11:44:30.251Z,44.13
2022-08-01T11:47:08.802Z,44.21
2022-08-01T11:49:51.524Z,42.75
2022-08-01T11:52:25.498Z,43.58
2022-08-01T11:54:55.080Z,43.18
2022-08-01T11:57:34.132Z,44.26
2022-08-01T12:00:08.657Z,43.62
2022-08-01T12:02:43.000Z,43.68
2022-08-01T12:05:15.381Z,44.27
2022-08-01T12:07:45.956Z,47.18
2022-08-01T12:10:16.208Z,43.36
2022-08-01T12:12:45.993Z,44.89
2022-08-01T12:15:14.545Z,45.92
2022-08-01T12:17:57.670Z,42.64
2022-08-01T12:20:31.030Z,44.26
2022-08-01T12:23:03.142Z,42.69
2022-08-01T12:25:31.312Z,43.18
2022-08-01T12:28:02.736Z,43.66
2022-08-01T12:30:31.830Z,43.83
2022-08-01T12:33:00.238Z,45.49
2022-08-01T12:35:29.919Z,46.36
2022-08-01T12:38:02.492Z,45.65
2022-08-01T12:40:32.481Z,44.89
2022-08-01T12:43:03.169Z,43.79
2022-08-01T12:45:33.091Z,42.40
2022-08-01T12:48:01.780Z,44.40
2022-08-01T12:50:31.959Z,41.43
2022-08-01T12:53:01.192Z,41.23
2022-08-01T12:55:34.001Z,41.84
2022-08-01T12:58:10.403Z,41.69
2022-08-01T13:00:46.210Z,40.82
2022-08-01T13:03:15.972Z,42.34
2022-08-01T13:05:45.965Z,42.70
2022-08-01T13:08:16.618Z,43.98
2022-08-01T13:10:45.505Z,45.17
2022-08-01T13:13:28.725Z,44.86
2022-08-01T13:16:06.528Z,44.90
2022-08-01T13:18:35.774Z,45.86
2022-08-01T13:21:12.688Z,46.14
2022-08-01T13:24:01.874Z,46.60
2022-08-01T13:26:41.898Z,48.00
2022-08-01T13:29:10.684Z,50.77
2022-08-01T13:31:39.902Z,52.87
2022-08-01T13:34:07.909Z,53.48
2022-08-01T13:36:36.339Z,51.36
2022-08-01T13:39:28.090Z,50.75
2022-08-01T13:41:55.725Z,49.20
2022-08-01T13:44:23.763Z,49.41
2022-08-01T13:46:52.014Z,48.91
2022-08-01T13:49:20.242Z,48.66
2022-08-01T13:51:48.129Z,50.25
2022-08-01T13:54:17.521Z,47.71
2022-08-01T13:56:45.268Z,48.39
2022-08-01T13:59:12.963Z,48.93
2022-08-01T14:01:40.863Z,47.92
2022-08-01T14:04:09.035Z,47.99
2022-08-01T14:06:37.412Z,48.90
2022-08-01T14:09:18.062Z,52.02
2022-08-01T14:11:53.548Z,52.77
2022-08-01T14:14:21.431Z,51.38
2022-08-01T14:16:49.259Z,50.88
2022-08-01T14:19:17.582Z,51.54
2022-08-01T14:21:47.213Z,52.93
2022-08-01T14:24:22.050Z,51.90
2022-08-01T14:26:49.820Z,53.80
2022-08-01T14:29:18.959Z,55.78
2022-08-01T14:31:46.825Z,57.03
2022-08-01T14:34:15.209Z,57.96
2022-08-01T14:36:43.661Z,58.98
2022-08-01T14:39:14.973Z,58.57
2022-08-01T14:41:43.024Z,59.66
2022-08-01T14:44:13.215Z,60.01
2022-08-01T14:46:57.515Z,61.45
2022-08-01T14:49:26.502Z,61.69
2022-08-01T14:51:54.291Z,61.70
2022-08-01T14:54:26.852Z,59.77
2022-08-01T14:56:57.399Z,62.19
2022-08-01T14:59:25.243Z,60.78
2022-08-01T15:01:54.287Z,59.50
2022-08-01T15:04:22.795Z,59.99
2022-08-01T15:06:50.506Z,60.15
2022-08-01T15:09:18.307Z,59.88
2022-08-01T15:11:47.862Z,56.48
2022-08-01T15:14:33.117Z,57.64
2022-08-01T15:17:02.424Z,57.75
2022-08-01T15:19:30.140Z,59.42
2022-08-01T15:21:57.864Z,62.34
2022-08-01T15:24:27.803Z,65.83
2022-08-01T15:26:55.465Z,68.63
2022-08-01T15:29:23.135Z,71.86
2022-08-01T15:31:52.493Z,76.04
2022-08-01T15:34:21.549Z,79.69
2022-08-01T15:36:49.383Z,79.27
2022-08-01T15:39:17.271Z,80.62
2022-08-01T15:41:45.015Z,80.77
2022-08-01T15:44:12.690Z,81.85
2022-08-01T15:46:40.409Z,82.91
2022-08-01T15:49:10.012Z,82.04
2022-08-01T15:51:39.056Z,83.66
2022-08-01T15:54:10.254Z,84.30
2022-08-01T15:56:41.980Z,84.05
2022-08-01T15:59:09.659Z,84.81
2022-08-01T16:01:38.753Z,85.04
2022-08-01T16:04:07.510Z,86.32
2022-08-01T16:06:36.595Z,86.23
2022-08-01T16:09:06.487Z,87.63
2022-08-01T16:11:34.143Z,92.22
2022-08-01T16:14:02.133Z,90.62
2022-08-01T16:16:29.847Z,89.16
2022-08-01T16:18:57.567Z,89.82
2022-08-01T16:21:25.371Z,89.01
2022-08-01T16:23:53.141Z,87.48
2022-08-01T16:26:27.506Z,90.99
2022-08-01T16:29:32.747Z,87.39
2022-08-01T16:32:17.027Z,77.35
2022-08-01T16:34:52.221Z,73.01
2022-08-01T16:37:19.959Z,73.71
2022-08-01T16:39:47.783Z,75.09
2022-08-01T16:42:16.857Z,75.34
2022-08-01T16:44:45.440Z,74.55
2022-08-01T16:47:17.225Z,75.37
2022-08-01T16:49:44.886Z,76.02
2022-08-01T16:52:12.840Z,79.26
2022-08-01T16:54:40.540Z,78.25
2022-08-01T16:57:09.209Z,77.44
2022-08-01T16:59:41.673Z,77.38
2022-08-01T17:02:11.012Z,78.96
2022-08-01T17:04:38.939Z,79.32
2022-08-01T17:07:07.047Z,80.30
2022-08-01T17:09:36.652Z,78.91
2022-08-01T17:12:08.421Z,77.86
2022-08-01T17:14:39.744Z,76.78
2022-08-01T17:17:09.461Z,72.33
2022-08-01T17:19:37.541Z,73.73
2022-08-01T17:22:05.360Z,74.55
2022-08-01T17:24:34.249Z,75.42
2022-08-01T17:27:01.951Z,76.14
2022-08-01T17:29:29.797Z,77.35
2022-08-01T17:32:14.374Z,77.56
2022-08-01T17:34:42.722Z,79.38
2022-08-01T17:37:10.794Z,79.66
2022-08-01T17:39:40.068Z,78.87
2022-08-01T17:42:08.831Z,80.37
2022-08-01T17:44:36.589Z,80.60
2022-08-01T17:47:05.891Z,83.06
2022-08-01T17:50:00.872Z,83.45
2022-08-01T17:52:29.387Z,83.68
2022-08-01T17:54:57.652Z,82.43
2022-08-01T17:57:25.477Z,84.33
2022-08-01T17:59:53.252Z,84.34
2022-08-01T18:02:21.105Z,85.13
2022-08-01T18:04:52.184Z,87.04
2022-08-01T18:07:20.404Z,85.52
2022-08-01T18:09:48.314Z,85.16
2022-08-01T18:12:17.072Z,85.80
2022-08-01T18:14:46.783Z,85.06
2022-08-01T18:17:20.377Z,82.95
2022-08-01T18:19:48.074Z,84.00
2022-08-01T18:22:32.931Z,85.70
2022-08-01T18:25:07.573Z,88.89
2022-08-01T18:28:21.189Z,88.54
2022-08-01T18:30:24.370Z,87.98
2022-08-01T18:32:52.253Z,88.00
2022-08-01T18:35:19.933Z,88.11
2022-08-01T18:37:55.182Z,86.54
2022-08-01T18:40:23.388Z,87.71
2022-08-01T18:42:51.187Z,88.53
2022-08-01T18:45:19.114Z,89.73
2022-08-01T18:47:48.328Z,90.33
2022-08-01T18:50:16.283Z,89.84
2022-08-01T18:52:44.003Z,91.21
2022-08-01T18:55:13.166Z,91.21
2022-08-01T18:57:42.756Z,90.74
2022-08-01T19:00:12.135Z,91.00
2022-08-01T19:02:41.657Z,93.09
2022-08-01T19:05:10.526Z,92.73
2022-08-01T19:08:05.093Z,95.17
2022-08-01T19:10:28.604Z,100.00
2022-08-01T19:12:56.267Z,100.00
2022-08-01T19:15:23.927Z,100.00
2022-08-01T19:17:51.633Z,100.00
2022-08-01T19:20:19.274Z,100.00
2022-08-01T19:22:47.003Z,100.00
2022-08-01T19:25:15.158Z,100.00
2022-08-01T19:27:47.837Z,100.00
2022-08-01T19:30:17.038Z,100.00
2022-08-01T19:32:46.295Z,100.00
2022-08-01T19:35:16.895Z,100.00
2022-08-01T19:37:47.662Z,100.00
2022-08-01T19:40:26.793Z,100.00
2022-08-01T19:42:57.733Z,100.00
2022-08-01T19:45:29.152Z,100.00
2022-08-01T19:47:57.937Z,100.00
2022-08-01T19:50:27.342Z,100.00
2022-08-01T19:52:57.270Z,100.00
2022-08-01T19:55:25.652Z,100.00
2022-08-01T20:00:43.629Z,100.00
2022-08-01T20:03:11.440Z,100.00
2022-08-01T20:05:39.727Z,100.00
2022-08-01T20:08:07.656Z,100.00
2022-08-01T20:10:38.049Z,100.00
2022-08-01T20:13:06.241Z,100.00
2022-08-01T20:15:33.901Z,100.00
2022-08-01T20:18:02.937Z,100.00
2022-08-01T20:20:32.782Z,100.00
2022-08-01T20:23:04.270Z,100.00
2022-08-01T20:25:40.227Z,100.00
2022-08-01T20:28:11.007Z,100.00
2022-08-01T20:30:39.804Z,100.00
2022-08-01T20:33:10.315Z,100.00
2022-08-01T20:35:53.838Z,100.00
2022-08-01T20:38:27.814Z,100.00
2022-08-01T20:40:58.629Z,100.00
2022-08-01T20:43:27.871Z,100.00
2022-08-01T20:45:57.883Z,100.00
2022-08-01T20:48:29.419Z,100.00
2022-08-01T20:51:17.108Z,100.00
2022-08-01T20:53:48.963Z,100.00
2022-08-01T20:56:18.645Z,100.00
2022-08-01T20:59:01.804Z,100.00
2022-08-01T21:02:02.965Z,100.00
2022-08-01T21:04:53.018Z,100.00
2022-08-01T21:07:25.558Z,100.00
2022-08-01T21:10:01.167Z,100.00
2022-08-01T21:12:40.843Z,100.00
2022-08-01T21:15:12.984Z,100.00
2022-08-01T21:17:46.360Z,100.00
2022-08-01T21:20:16.144Z,100.00
2022-08-01T21:22:54.157Z,100.00
2022-08-01T21:25:27.336Z,100.00
2022-08-01T21:27:58.810Z,100.00
2022-08-01T21:30:28.423Z,100.00
2022-08-01T21:32:57.194Z,100.00
2022-08-01T21:35:29.166Z,100.00
2022-08-01T21:37:58.975Z,100.00
2022-08-01T21:40:26.984Z,100.00
2022-08-01T21:42:56.031Z,100.00
2022-08-01T21:45:25.464Z,100.00
2022-08-01T21:47:53.893Z,100.00
2022-08-01T21:50:22.200Z,100.00
2022-08-01T21:53:03.215Z,100.00
2022-08-01T21:55:37.650Z,100.00
2022-08-01T21:58:32.241Z,100.00
2022-08-01T22:01:06.697Z,100.00
2022-08-01T22:03:41.660Z,100.00
2022-08-01T22:06:13.262Z,100.00
2022-08-01T22:08:50.815Z,100.00
2022-08-01T22:11:21.381Z,100.00
2022-08-01T22:13:53.396Z,100.00
2022-08-01T22:16:22.256Z,100.00
2022-08-01T22:18:51.382Z,100.00
2022-08-01T22:21:19.548Z,100.00
2022-08-01T22:23:51.548Z,100.00
2022-08-01T22:26:25.776Z,100.00
2022-08-01T22:28:56.840Z,100.00
2022-08-01T22:31:25.270Z,100.00
2022-08-01T22:33:53.715Z,100.00
2022-08-01T22:36:22.970Z,100.00
2022-08-01T22:38:52.282Z,100.00
2022-08-01T22:41:26.282Z,100.00
2022-08-01T22:44:00.792Z,100.00
2022-08-01T22:46:37.662Z,100.00
2022-08-01T22:49:16.707Z,100.00
2022-08-01T22:51:55.579Z,100.00
2022-08-01T22:54:32.101Z,100.00
2022-08-01T22:57:02.522Z,100.00
2022-08-01T22:59:43.470Z,100.00
2022-08-01T23:02:16.736Z,100.00
2022-08-01T23:04:47.513Z,100.00
2022-08-01T23:07:20.186Z,100.00
2022-08-01T23:09:54.041Z,100.00
2022-08-01T23:12:25.327Z,100.00
2022-08-01T23:14:54.943Z,100.00
2022-08-01T23:17:26.949Z,100.00
2022-08-01T23:19:59.116Z,100.00
2022-08-01T23:22:29.793Z,100.00
2022-08-01T23:25:05.483Z,100.00
2022-08-01T23:27:57.857Z,100.00
2022-08-01T23:30:26.525Z,100.00
2022-08-01T23:32:54.749Z,100.00
2022-08-01T23:35:22.727Z,100.00
2022-08-01T23:37:51.441Z,100.00
2022-08-01T23:40:25.160Z,100.00
2022-08-01T23:42:54.694Z,100.00
2022-08-01T23:45:23.176Z,100.00
2022-08-01T23:47:51.474Z,100.00
2022-08-01T23:50:21.198Z,100.00
2022-08-01T23:52:50.816Z,100.00
2022-08-01T23:55:36.598Z,100.00
2022-08-01T23:58:06.895Z,100.00
